Time;durP1;ratioP1;P1;durP2;ratioP2;P2;SDS_P1;SDS_P2;PMS_P1;PMS_P2;Temp;Humidity;BMP_temperature;BMP_pressure;BME280_temperature;BME280_humidity;BME280_pressure;Samples;Min_cycle;Max_cycle;Signal;HPM_P1;HPM_P2
2021/08/26 00:07:20;;;;;;;0.65;0.13;;;;;;;16.22;73.15;99915.33;1711875;82;21014;-66
2021/08/26 00:09:49;;;;;;;0.30;0.10;;;;;;;16.26;73.06;99920.56;1719483;82;21007;-67
2021/08/26 00:12:15;;;;;;;0.65;0.10;;;;;;;16.27;72.83;99916.80;1719049;82;21082;-67
2021/08/26 00:14:41;;;;;;;1.00;0.10;;;;;;;16.23;72.72;99916.98;1699367;83;21051;-67
2021/08/26 00:17:08;;;;;;;0.10;0.10;;;;;;;16.15;73.08;99918.97;1714225;81;21065;-69
2021/08/26 00:19:35;;;;;;;0.10;0.10;;;;;;;16.10;73.26;99921.53;1708079;82;21073;-67
2021/08/26 00:22:02;;;;;;;0.17;0.10;;;;;;;16.10;73.54;99922.88;1709972;81;21034;-66
2021/08/26 00:24:28;;;;;;;0.15;0.15;;;;;;;16.12;73.44;99922.15;1708872;82;21503;-68
2021/08/26 00:26:55;;;;;;;;;;;;;;;16.12;73.44;99922.15;1684646;84;21038;-67
2021/08/26 00:29:21;;;;;;;1.55;0.10;;;;;;;16.13;73.54;99929.14;1659530;85;20145;-66
2021/08/26 00:31:48;;;;;;;0.10;0.10;;;;;;;16.07;73.62;99921.22;1665693;85;21010;-66
2021/08/26 00:34:16;;;;;;;2.60;0.30;;;;;;;16.13;73.50;99907.64;1675172;83;21135;-66
2021/08/26 00:36:45;;;;;;;0.10;0.10;;;;;;;16.13;73.50;99907.64;1710396;83;21050;-66
2021/08/26 00:39:11;;;;;;;0.40;0.10;;;;;;;16.14;73.56;99907.94;1698488;83;21066;-67
2021/08/26 00:41:37;;;;;;;;;;;;;;;16.12;73.60;99909.21;1667072;86;21184;-67
2021/08/26 00:44:04;;;;;;;0.30;0.10;;;;;;;16.15;73.56;99910.91;1691912;83;20111;-67
2021/08/26 00:46:31;;;;;;;0.10;0.10;;;;;;;16.12;73.66;99911.90;1693125;83;21108;-68
2021/08/26 00:48:57;;;;;;;0.20;0.20;;;;;;;16.12;73.58;99903.84;1651745;85;21110;-68
2021/08/26 00:51:24;;;;;;;0.68;0.10;;;;;;;16.14;73.36;99913.83;1699117;82;21047;-70
2021/08/26 00:53:51;;;;;;;0.10;0.10;;;;;;;16.14;73.36;99913.83;1657969;84;21032;-69
2021/08/26 00:56:17;;;;;;;0.37;0.17;;;;;;;16.18;73.50;99920.89;1689604;83;21120;-69
2021/08/26 00:58:48;;;;;;;0.30;0.10;;;;;;;16.21;73.28;99919.90;1679227;82;21099;-69
2021/08/26 01:01:20;;;;;;;4.22;0.30;;;;;;;16.18;73.44;99912.33;1675788;84;21110;-67
2021/08/26 01:04:03;;;;;;;0.10;0.10;;;;;;;16.18;73.44;99912.33;1696966;84;21170;-66
2021/08/26 01:06:41;;;;;;;3.27;0.20;;;;;;;16.20;73.41;99918.79;1697688;83;21008;-66
2021/08/26 01:09:13;;;;;;;0.20;0.10;;;;;;;16.23;73.35;99919.14;1696214;84;21098;-67
2021/08/26 01:11:43;;;;;;;3.92;0.30;;;;;;;16.29;73.24;99916.87;1694274;82;21024;-69
2021/08/26 01:14:11;;;;;;;0.30;0.15;;;;;;;16.29;73.24;99916.87;1662057;85;21012;-69
2021/08/26 01:16:39;;;;;;;0.50;0.17;;;;;;;16.33;72.98;99921.22;1615854;87;21047;-68
2021/08/26 01:19:07;;;;;;;3.92;0.10;;;;;;;16.35;73.02;99917.27;1659146;85;21155;-66
2021/08/26 01:21:34;;;;;;;1.47;0.10;;;;;;;16.32;72.96;99915.03;1662714;85;21071;-67
2021/08/26 01:24:08;;;;;;;0.10;0.10;;;;;;;16.32;72.96;99915.03;1657378;84;21602;-67
2021/08/26 01:26:46;;;;;;;0.10;0.10;;;;;;;16.30;72.96;99913.65;1654218;85;21067;-67
2021/08/26 01:29:15;;;;;;;0.20;0.10;;;;;;;16.31;72.98;99916.61;1661601;84;21666;-66
2021/08/26 01:31:47;;;;;;;0.47;0.20;;;;;;;16.32;73.05;99912.88;1669318;84;21110;-68
2021/08/26 01:34:19;;;;;;;0.10;0.10;;;;;;;16.34;73.03;99923.69;1668567;85;21130;-68
2021/08/26 01:36:47;;;;;;;0.20;0.20;;;;;;;16.39;72.70;99915.42;1647190;84;21111;-66
2021/08/26 01:39:17;;;;;;;1.37;0.10;;;;;;;16.39;72.47;99915.42;1664744;84;21093;-67
2021/08/26 01:41:49;;;;;;;0.75;0.10;;;;;;;16.40;72.24;99922.45;1666260;85;21051;-68
2021/08/26 01:44:23;;;;;;;1.35;0.10;;;;;;;16.35;72.33;99919.14;1669067;84;21045;-68
2021/08/26 01:47:15;;;;;;;0.20;0.10;;;;;;;16.29;72.40;99916.03;1657205;85;21121;-69
2021/08/26 01:49:45;;;;;;;0.13;0.10;;;;;;;16.29;72.75;99917.37;1666506;85;21647;-67
2021/08/26 01:52:17;;;;;;;0.57;0.15;;;;;;;16.33;72.72;99918.03;1675018;84;22013;-68
2021/08/26 01:55:04;;;;;;;0.17;0.17;;;;;;;16.33;72.72;99918.03;1666124;84;21027;-68
2021/08/26 01:57:33;;;;;;;1.12;0.20;;;;;;;16.37;72.25;99917.53;1665828;85;21016;-67
2021/08/26 02:00:06;;;;;;;0.10;0.10;;;;;;;16.39;72.24;99908.70;1648555;85;21035;-67
2021/08/26 02:02:32;;;;;;;0.20;0.10;;;;;;;16.39;72.00;99905.50;1659820;84;21055;-68
2021/08/26 02:04:58;;;;;;;2.00;0.20;;;;;;;16.37;72.25;99908.96;1671970;84;22524;-67
2021/08/26 02:07:26;;;;;;;0.20;0.10;;;;;;;16.32;72.37;99904.81;1680520;84;21508;-69
2021/08/26 02:09:52;;;;;;;;;;;;;;;16.31;72.40;99901.82;1627713;87;21140;-67
2021/08/26 02:12:18;;;;;;;0.90;0.10;;;;;;;16.31;72.26;99902.66;1632679;86;20415;-67
2021/08/26 02:14:45;;;;;;;0.62;0.10;;;;;;;16.28;72.41;99899.09;1669327;85;21020;-68
2021/08/26 02:17:11;;;;;;;0.10;0.10;;;;;;;16.29;72.08;99896.70;1672363;84;21064;-67
2021/08/26 02:19:38;;;;;;;0.55;0.20;;;;;;;16.29;72.25;99896.70;1633525;86;21085;-68
2021/08/26 02:22:04;;;;;;;0.15;0.15;;;;;;;16.29;72.57;99889.14;1671254;84;21043;-68
2021/08/26 02:24:31;;;;;;;0.15;0.15;;;;;;;16.33;72.67;99890.30;1632511;86;21076;-68
2021/08/26 02:26:57;;;;;;;0.28;0.20;;;;;;;16.39;71.70;99877.27;1667642;84;21522;-66
2021/08/26 02:29:23;;;;;;;;;;;;;;;16.39;71.70;99877.27;1676888;85;21533;-67
2021/08/26 02:31:49;;;;;;;0.20;0.10;;;;;;;16.30;72.12;99878.15;1671685;85;20129;-66
2021/08/26 02:34:15;;;;;;;;;;;;;;;16.30;72.12;99878.15;1668340;84;21052;-67
2021/08/26 02:36:41;;;;;;;0.20;0.20;;;;;;;16.31;72.13;99883.83;1663093;84;20547;-66
2021/08/26 02:39:09;;;;;;;0.62;0.40;;;;;;;16.29;72.02;99891.32;1665808;84;21149;-66
2021/08/26 02:41:39;;;;;;;0.30;0.30;;;;;;;16.30;72.16;99896.17;1656423;85;21034;-66
2021/08/26 02:44:05;;;;;;;0.57;0.20;;;;;;;16.31;72.07;99896.44;1662874;84;21073;-67
2021/08/26 02:46:32;;;;;;;0.20;0.20;;;;;;;16.35;72.01;99892.25;1657524;85;21043;-67
2021/08/26 02:48:58;;;;;;;2.33;0.20;;;;;;;16.36;72.01;99887.14;1655434;84;21087;-66
2021/08/26 02:51:24;;;;;;;2.00;0.40;;;;;;;16.35;72.06;99888.21;1661626;85;21039;-66
2021/08/26 02:53:50;;;;;;;;;;;;;;;16.34;72.13;99883.88;1618574;87;21027;-66
2021/08/26 02:56:17;;;;;;;0.90;0.30;;;;;;;16.34;72.17;99879.30;1655378;85;20216;-68
2021/08/26 02:58:43;;;;;;;0.30;0.20;;;;;;;16.33;72.16;99883.06;1664857;85;21004;-67
2021/08/26 03:01:09;;;;;;;0.65;0.10;;;;;;;16.37;71.85;99873.16;1659612;85;21175;-68
2021/08/26 03:03:36;;;;;;;0.40;0.23;;;;;;;16.37;71.85;99873.16;1648399;86;21228;-67
2021/08/26 03:06:02;;;;;;;0.10;0.10;;;;;;;16.35;72.03;99870.20;1660938;84;21122;-68
2021/08/26 03:08:31;;;;;;;0.42;0.20;;;;;;;16.36;72.22;99873.69;1664731;84;21093;-68
2021/08/26 03:11:00;;;;;;;0.55;0.25;;;;;;;16.38;72.41;99868.89;1651631;85;21111;-68
2021/08/26 03:13:27;;;;;;;0.57;0.28;;;;;;;16.38;72.54;99862.70;1669836;85;21103;-67
2021/08/26 03:15:55;;;;;;;0.65;0.20;;;;;;;16.35;72.32;99866.70;1676148;84;21552;-68
2021/08/26 03:18:21;;;;;;;;;;;;;;;16.32;72.27;99862.59;1677882;85;21175;-68
2021/08/26 03:20:47;;;;;;;0.40;0.20;;;;;;;16.32;72.23;99866.63;1671276;85;20163;-68
2021/08/26 03:23:13;;;;;;;1.72;0.30;;;;;;;16.27;72.44;99872.42;1681234;85;21137;-68
2021/08/26 03:25:40;;;;;;;0.98;0.45;;;;;;;16.27;72.60;99871.08;1629497;86;21034;-68
2021/08/26 03:28:06;;;;;;;4.53;1.75;;;;;;;16.29;72.75;99873.84;1671874;84;21045;-69
2021/08/26 03:30:32;;;;;;;3.65;1.35;;;;;;;16.35;73.37;99872.88;1662273;84;21465;-69
2021/08/26 03:32:58;;;;;;;7.08;3.52;;;;;;;16.46;73.25;99869.05;1666053;84;21186;-70
2021/08/26 03:35:25;;;;;;;1.15;0.60;;;;;;;16.57;73.17;99879.48;1680297;85;21142;-69
2021/08/26 03:37:51;;;;;;;0.30;0.30;;;;;;;16.66;73.02;99880.21;1661512;85;21071;-69
2021/08/26 03:40:17;;;;;;;;;;;;;;;16.71;72.28;99868.74;1678989;84;21080;-69
2021/08/26 03:42:43;;;;;;;1.42;0.37;;;;;;;16.67;72.07;99873.78;1664989;85;20484;-69
2021/08/26 03:45:11;;;;;;;0.35;0.20;;;;;;;16.57;72.37;99870.87;1671007;83;21063;-67
2021/08/26 03:47:37;;;;;;;1.22;0.23;;;;;;;16.58;72.38;99879.25;1667990;84;21038;-69
2021/08/26 03:50:06;;;;;;;1.47;0.25;;;;;;;16.58;72.27;99871.72;1659623;84;22212;-67
2021/08/26 03:52:32;;;;;;;0.72;0.40;;;;;;;16.58;72.71;99869.84;1668594;84;21536;-66
2021/08/26 03:54:58;;;;;;;;;;;;;;;16.63;72.05;99865.06;1669658;84;21050;-70
2021/08/26 03:57:26;;;;;;;0.40;0.30;;;;;;;16.71;72.33;99864.70;1676447;84;20147;-69
2021/08/26 03:59:52;;;;;;;;;;;;;;;15.91;72.14;99739.97;1680297;84;21634;-70
2021/08/26 04:02:18;;;;;;;0.30;0.25;;;;;;;16.74;72.43;99862.36;1677017;84;20159;-69
2021/08/26 04:04:44;;;;;;;0.62;0.20;;;;;;;16.67;72.28;99871.59;1658797;84;21151;-70
2021/08/26 04:07:11;;;;;;;0.30;0.30;;;;;;;16.63;72.36;99873.14;1653225;85;21035;-70
2021/08/26 04:09:37;;;;;;;0.20;0.20;;;;;;;16.60;72.33;99869.06;1661212;85;21089;-71
2021/08/26 04:12:04;;;;;;;1.67;0.37;;;;;;;16.60;72.24;99867.72;1631348;85;21158;-69
2021/08/26 04:14:32;;;;;;;0.62;0.30;;;;;;;16.55;72.05;99869.77;1662056;84;21101;-69
2021/08/26 04:16:59;;;;;;;0.35;0.30;;;;;;;16.50;72.26;99862.96;1644107;85;21637;-70
2021/08/26 04:19:25;;;;;;;0.45;0.20;;;;;;;16.50;72.92;99867.00;1678635;84;21573;-69
2021/08/26 04:21:52;;;;;;;3.05;0.30;;;;;;;16.52;72.62;99870.27;1665231;84;21130;-70
2021/08/26 04:24:21;;;;;;;0.30;0.20;;;;;;;16.54;72.60;99871.37;1656636;84;21530;-69
2021/08/26 04:26:47;;;;;;;1.02;0.42;;;;;;;16.52;72.19;99864.08;1653015;85;21149;-70
2021/08/26 04:29:19;;;;;;;;;;;;;;;16.47;72.13;99859.39;1678804;83;21058;-70
2021/08/26 04:31:46;;;;;;;0.72;0.45;;;;;;;16.44;72.39;99861.74;1675172;83;20146;-69
2021/08/26 04:34:12;;;;;;;;;;;;;;;16.37;72.92;99863.75;1646179;86;21080;-69
2021/08/26 04:36:40;;;;;;;1.07;0.20;;;;;;;16.37;73.07;99861.05;1632844;85;20173;-69
2021/08/26 04:39:07;;;;;;;0.33;0.33;;;;;;;16.38;72.93;99853.28;1672023;85;21151;-69
2021/08/26 04:41:38;;;;;;;0.35;0.35;;;;;;;16.38;72.93;99853.28;1642831;85;21190;-70
2021/08/26 04:44:07;;;;;;;0.35;0.35;;;;;;;16.43;72.56;99853.40;1667747;84;20997;-69
2021/08/26 04:46:36;;;;;;;0.40;0.40;;;;;;;16.46;72.51;99853.74;1662103;84;21118;-69
2021/08/26 04:49:08;;;;;;;0.40;0.40;;;;;;;16.51;72.55;99861.08;1637813;86;23060;-69
2021/08/26 04:51:36;;;;;;;2.60;0.30;;;;;;;16.58;72.31;99867.69;1674116;84;21156;-73
2021/08/26 04:54:02;;;;;;;0.40;0.40;;;;;;;16.61;72.19;99863.95;1675977;85;21108;-69
2021/08/26 04:56:30;;;;;;;0.85;0.30;;;;;;;16.66;72.10;99863.25;1661958;85;21120;-69
2021/08/26 04:58:58;;;;;;;1.37;0.30;;;;;;;16.68;71.63;99859.80;1668982;85;21056;-69
2021/08/26 05:01:24;;;;;;;0.98;0.65;;;;;;;16.74;71.61;99860.17;1654484;85;21138;-68
2021/08/26 05:03:50;;;;;;;0.72;0.40;;;;;;;16.80;71.42;99859.73;1653974;86;21143;-70
2021/08/26 05:06:16;;;;;;;;;;;;;;;16.82;71.29;99860.30;1638574;86;21098;-72
2021/08/26 05:08:42;;;;;;;3.33;0.75;;;;;;;16.80;71.68;99861.92;1626940;86;20479;-70
2021/08/26 05:11:08;;;;;;;1.17;1.17;;;;;;;16.70;72.35;99859.02;1654034;83;21094;-69
2021/08/26 05:13:34;;;;;;;2.33;1.55;;;;;;;16.64;73.41;99856.77;1701621;83;20991;-69
2021/08/26 05:16:00;;;;;;;2.67;1.90;;;;;;;16.54;73.89;99860.08;1705488;83;21019;-69
2021/08/26 05:18:26;;;;;;;;;;;;;;;16.51;74.16;99864.58;1706948;83;20968;-69
2021/08/26 05:20:52;;;;;;;1.62;1.52;;;;;;;16.55;74.34;99865.73;1698879;82;20210;-70
2021/08/26 05:23:18;;;;;;;2.60;2.05;;;;;;;16.53;74.76;99859.77;1701519;83;21094;-69
2021/08/26 05:25:44;;;;;;;;;;;;;;;16.55;74.91;99865.73;1701047;81;21062;-69
2021/08/26 05:28:12;;;;;;;1.25;1.15;;;;;;;16.55;75.04;99869.77;1704973;83;20240;-68
2021/08/26 05:30:39;;;;;;;4.37;2.00;;;;;;;16.51;75.37;99862.42;1687867;82;21124;-70
2021/08/26 05:33:05;;;;;;;1.90;1.80;;;;;;;16.50;75.59;99862.96;1690830;83;21589;-70
2021/08/26 05:35:32;;;;;;;2.20;2.00;;;;;;;16.50;75.76;99865.66;1695740;83;21564;-70
2021/08/26 05:37:59;;;;;;;2.42;2.33;;;;;;;16.47;76.18;99873.38;1674074;84;21098;-69
2021/08/26 05:40:25;;;;;;;;;;;;;;;16.42;76.40;99870.05;1704169;82;20995;-71
2021/08/26 05:42:51;;;;;;;2.27;1.50;;;;;;;16.26;77.37;99870.27;1704619;83;20109;-69
2021/08/26 05:45:19;;;;;;;2.37;1.87;;;;;;;16.26;77.37;99870.27;1644569;85;21095;-70
2021/08/26 05:47:48;;;;;;;1.72;1.62;;;;;;;16.20;77.98;99874.42;1693463;81;21027;-70
2021/08/26 05:50:14;;;;;;;2.10;2.00;;;;;;;16.13;78.51;99871.87;1700226;83;21161;-70
2021/08/26 05:52:40;;;;;;;2.98;2.12;;;;;;;16.10;78.49;99870.45;1697540;83;20995;-69
2021/08/26 05:55:08;;;;;;;2.02;1.90;;;;;;;16.06;78.87;99871.98;1698147;83;21016;-70
2021/08/26 05:57:34;;;;;;;3.83;2.60;;;;;;;16.06;78.87;99871.98;1657268;84;21070;-71
2021/08/26 06:00:01;;;;;;;2.85;1.95;;;;;;;16.10;78.77;99865.62;1655015;84;21055;-73
2021/08/26 06:02:26;;;;;;;2.37;2.27;;;;;;;16.13;78.50;99864.63;1651782;85;21584;-71
2021/08/26 06:05:24;;;;;;;;;;;;;;;;;;;;;
2021/08/26 06:07:47;;;;;;;2.72;2.22;;;;;;;16.22;77.53;99855.67;1662500;85;21063;-72
2021/08/26 06:10:14;;;;;;;2.10;2.00;;;;;;;16.22;77.53;99855.67;1659671;84;21079;-68
2021/08/26 06:12:42;;;;;;;2.12;1.80;;;;;;;16.29;77.50;99852.83;1668952;83;21180;-69
2021/08/26 06:15:12;;;;;;;2.02;1.90;;;;;;;16.38;77.27;99850.06;1673250;83;21039;-69
2021/08/26 06:17:40;;;;;;;3.00;2.00;;;;;;;16.44;76.93;99849.10;1663065;83;21118;-69
2021/08/26 06:20:13;;;;;;;1.62;1.47;;;;;;;16.49;76.80;99854.59;1672142;83;21094;-70
2021/08/26 06:22:40;;;;;;;2.70;2.50;;;;;;;16.54;76.70;99853.89;1673519;84;21139;-70
2021/08/26 06:25:10;;;;;;;10.72;7.12;;;;;;;16.57;76.64;99861.46;1665635;83;21071;-65
2021/08/26 06:27:37;;;;;;;10.95;9.95;;;;;;;16.53;76.71;99852.24;1674985;84;21085;-69
2021/08/26 06:30:07;;;;;;;16.55;15.05;;;;;;;16.53;76.87;99858.43;1662884;85;21038;-72
2021/08/26 06:32:36;;;;;;;16.85;15.08;;;;;;;16.58;76.40;99855.58;1655990;84;21694;-68
2021/08/26 06:35:03;;;;;;;16.50;14.80;;;;;;;16.60;75.99;99864.22;1680146;84;21207;-68
2021/08/26 06:37:29;;;;;;;16.32;14.75;;;;;;;16.58;76.17;99863.65;1670252;85;21074;-68
2021/08/26 06:39:57;;;;;;;;;;;;;;;16.59;76.35;99870.64;1678651;84;21140;-68
2021/08/26 06:42:23;;;;;;;8.28;7.50;;;;;;;16.59;76.46;99876.84;1676547;83;20134;-69
2021/08/26 06:44:49;;;;;;;5.78;5.28;;;;;;;16.53;76.49;99874.57;1664578;85;21101;-69
2021/08/26 06:47:16;;;;;;;;;;;;;;;16.51;76.28;99886.10;1661524;85;21217;-71
2021/08/26 06:49:44;;;;;;;3.37;3.12;;;;;;;16.44;76.20;99886.76;1669754;84;20180;-69
2021/08/26 06:52:10;;;;;;;3.05;2.67;;;;;;;16.32;76.39;99890.02;1674017;84;21137;-71
2021/08/26 06:54:38;;;;;;;5.03;3.20;;;;;;;16.29;76.62;99889.14;1665375;84;21130;-70
2021/08/26 06:57:06;;;;;;;2.70;2.50;;;;;;;16.28;77.04;99892.90;1664369;84;21114;-69
2021/08/26 06:59:32;;;;;;;5.22;3.33;;;;;;;16.16;77.64;99887.52;1666547;83;21047;-71
2021/08/26 07:01:58;;;;;;;;;;;;;;;16.06;78.37;99893.49;1656897;84;21204;-70
2021/08/26 07:04:24;;;;;;;3.70;3.17;;;;;;;16.01;78.62;99892.06;1667010;85;20206;-68
2021/08/26 07:06:54;;;;;;;5.47;3.17;;;;;;;15.99;79.06;99891.45;1669761;84;21055;-71
2021/08/26 07:09:21;;;;;;;5.53;4.05;;;;;;;16.05;79.60;99895.06;1667958;84;21075;-71
2021/08/26 07:11:53;;;;;;;3.00;2.70;;;;;;;16.08;79.67;99899.98;1660026;84;21101;-70
2021/08/26 07:14:28;;;;;;;3.45;3.17;;;;;;;16.10;79.71;99901.37;1663946;84;21565;-72
2021/08/26 07:16:56;;;;;;;2.92;2.70;;;;;;;16.14;79.91;99896.34;1684689;83;21066;-72
2021/08/26 07:19:25;;;;;;;5.65;3.85;;;;;;;16.19;80.06;99897.00;1673081;84;21086;-70
2021/08/26 07:21:51;;;;;;;3.87;3.30;;;;;;;16.25;79.78;99905.46;1687790;83;21067;-69
2021/08/26 07:24:17;;;;;;;2.90;2.70;;;;;;;16.28;79.29;99916.56;1681916;84;21055;-71
2021/08/26 07:26:43;;;;;;;5.25;2.92;;;;;;;16.26;79.01;99912.48;1678374;83;21703;-70
2021/08/26 07:29:11;;;;;;;3.00;2.80;;;;;;;16.23;79.47;99915.64;1696437;83;21624;-68
2021/08/26 07:31:39;;;;;;;3.22;2.90;;;;;;;16.03;78.79;99914.65;1682472;83;21030;-70
2021/08/26 07:34:05;;;;;;;3.83;3.55;;;;;;;16.03;78.79;99914.65;1676856;84;21087;-70
2021/08/26 07:36:32;;;;;;;3.83;3.33;;;;;;;16.02;79.32;99917.06;1660536;84;21102;-70
2021/08/26 07:38:59;;;;;;;4.37;4.05;;;;;;;16.11;79.95;99911.09;1658756;85;21462;-71
2021/08/26 07:41:29;;;;;;;4.85;4.58;;;;;;;16.11;79.95;99911.09;1665009;84;21031;-71
2021/08/26 07:43:53;;;;;;;5.25;4.83;;;;;;;16.21;80.71;99910.49;1662054;83;22149;-72
2021/08/26 07:46:25;;;;;;;5.45;5.08;;;;;;;16.25;80.45;99908.15;1676851;83;21610;-70
2021/08/26 07:48:49;;;;;;;6.03;5.42;;;;;;;16.31;80.70;99903.16;1671111;83;21070;-71
2021/08/26 07:51:16;;;;;;;4.28;3.98;;;;;;;16.31;80.70;99903.16;1672299;83;21102;-70
2021/08/26 07:53:41;;;;;;;;;;;;;;;16.37;80.17;99900.05;1668559;84;21087;-72
2021/08/26 07:56:10;;;;;;;5.95;5.40;;;;;;;16.38;80.66;99908.42;1672320;84;20545;-72
2021/08/26 07:58:37;;;;;;;6.15;5.75;;;;;;;16.38;80.66;99908.42;1661608;85;21050;-69
2021/08/26 08:01:04;;;;;;;4.72;4.30;;;;;;;16.38;80.22;99911.92;1661281;84;21147;-71
2021/08/26 08:03:32;;;;;;;4.30;3.22;;;;;;;16.28;79.62;99922.48;1681798;84;21679;-73
2021/08/26 08:06:01;;;;;;;5.25;3.27;;;;;;;16.12;80.27;99915.94;1670314;83;21657;-73
2021/08/26 08:08:27;;;;;;;3.15;2.85;;;;;;;16.06;81.25;99915.00;1678801;84;21603;-71
2021/08/26 08:10:54;;;;;;;3.98;3.62;;;;;;;16.06;81.25;99915.00;1640825;85;21125;-71
2021/08/26 08:13:21;;;;;;;1.67;1.57;;;;;;;16.03;81.05;99918.18;1675945;83;21687;-72
2021/08/26 08:15:47;;;;;;;2.33;1.85;;;;;;;15.99;80.97;99911.61;1691938;84;21090;-68
2021/08/26 08:18:13;;;;;;;1.92;1.77;;;;;;;16.00;81.42;99917.30;1687451;84;21042;-67
2021/08/26 08:20:40;;;;;;;;;;;;;;;16.01;81.39;99904.16;1678459;84;21145;-67
2021/08/26 08:23:07;;;;;;;2.37;2.27;;;;;;;16.05;81.58;99912.04;1668040;85;20657;-68
2021/08/26 08:25:36;;;;;;;3.72;3.25;;;;;;;16.09;82.12;99900.29;1675372;84;20965;-69
2021/08/26 08:28:09;;;;;;;5.97;5.47;;;;;;;16.20;82.14;99905.34;1691003;84;21885;-66
2021/08/26 08:30:37;;;;;;;7.65;7.08;;;;;;;16.19;80.75;99903.72;1673036;84;21482;-68
2021/08/26 08:33:03;;;;;;;7.92;7.33;;;;;;;16.19;80.75;99903.72;1697685;84;21520;-69
2021/08/26 08:35:29;;;;;;;4.95;4.65;;;;;;;16.15;80.71;99908.22;1660478;85;21568;-70
2021/08/26 08:37:57;;;;;;;8.45;7.75;;;;;;;16.05;80.80;99913.89;1671300;83;21103;-69
2021/08/26 08:40:25;;;;;;;7.50;6.80;;;;;;;15.98;81.16;99909.99;1687030;83;21259;-67
2021/08/26 08:42:52;;;;;;;12.03;10.68;;;;;;;15.94;81.11;99908.83;1683745;84;21119;-67
2021/08/26 08:45:19;;;;;;;12.58;11.38;;;;;;;15.85;81.20;99916.41;1676996;83;21710;-66
2021/08/26 08:47:48;;;;;;;9.65;8.75;;;;;;;15.79;81.22;99919.23;1688376;84;21119;-62
2021/08/26 08:50:15;;;;;;;9.10;8.40;;;;;;;15.79;81.22;99919.23;1682715;84;21084;-67
2021/08/26 08:52:42;;;;;;;9.03;8.13;;;;;;;15.81;81.57;99914.44;1675159;84;21693;-66
2021/08/26 08:55:11;;;;;;;6.58;6.08;;;;;;;15.88;81.97;99912.43;1686788;83;21055;-67
2021/08/26 08:57:43;;;;;;;5.00;4.65;;;;;;;15.99;81.86;99916.98;1678417;84;21066;-67
2021/08/26 09:00:14;;;;;;;6.12;3.27;;;;;;;16.09;81.51;99912.39;1684179;84;21048;-65
2021/08/26 09:02:41;;;;;;;4.97;3.60;;;;;;;16.16;81.79;99914.41;1675538;84;21119;-65
2021/08/26 09:05:08;;;;;;;3.20;2.92;;;;;;;16.21;81.41;99916.41;1689367;84;21003;-68
2021/08/26 09:07:36;;;;;;;3.70;3.40;;;;;;;16.24;81.16;99918.09;1688499;84;21066;-67
2021/08/26 09:10:06;;;;;;;3.47;3.27;;;;;;;16.22;80.53;99912.14;1675218;83;21600;-66
2021/08/26 09:12:44;;;;;;;2.50;2.40;;;;;;;16.21;80.31;99915.87;1690715;83;21057;-66
2021/08/26 09:15:17;;;;;;;2.30;2.20;;;;;;;16.19;80.76;99909.10;1692378;83;21000;-67
2021/08/26 09:17:46;;;;;;;2.42;2.22;;;;;;;16.21;80.35;99909.14;1687251;84;21869;-69
2021/08/26 09:20:17;;;;;;;2.42;2.33;;;;;;;16.18;81.44;99906.11;1683612;83;21559;-70
2021/08/26 09:22:44;;;;;;;2.77;2.30;;;;;;;16.18;81.44;99906.11;1682543;82;21228;-67
2021/08/26 09:25:13;;;;;;;2.47;2.27;;;;;;;16.18;81.97;99906.11;1689401;83;21087;-68
2021/08/26 09:27:42;;;;;;;10.80;8.00;;;;;;;16.18;81.97;99903.42;1694611;82;21071;-68
2021/08/26 09:30:14;;;;;;;7.80;7.05;;;;;;;16.17;81.72;99904.48;1691114;83;21136;-67
2021/08/26 09:32:50;;;;;;;6.83;6.22;;;;;;;16.12;81.34;99912.73;1676873;84;21103;-67
2021/08/26 09:35:29;;;;;;;4.33;3.92;;;;;;;16.06;82.00;99916.87;1685773;84;21059;-68
2021/08/26 09:38:00;;;;;;;2.72;2.52;;;;;;;16.00;82.35;99915.14;1683928;83;21162;-66
2021/08/26 09:40:30;;;;;;;4.00;2.95;;;;;;;15.96;82.09;99917.47;1674542;84;21600;-67
2021/08/26 09:43:02;;;;;;;1.60;1.50;;;;;;;15.96;82.09;99917.47;1695127;83;21074;-67
2021/08/26 09:45:33;;;;;;;2.42;2.10;;;;;;;15.96;82.25;99917.47;1681330;83;21113;-67
2021/08/26 09:48:10;;;;;;;1.77;1.25;;;;;;;15.94;81.88;99910.17;1668039;84;21174;-66
2021/08/26 09:50:48;;;;;;;0.68;0.68;;;;;;;15.91;81.75;99925.41;1670975;83;21043;-66
2021/08/26 09:53:19;;;;;;;1.62;1.52;;;;;;;15.87;81.75;99918.88;1676308;83;21110;-67
2021/08/26 09:55:57;;;;;;;0.90;0.90;;;;;;;15.85;82.06;99912.38;1671373;84;21149;-67
2021/08/26 09:58:28;;;;;;;0.60;0.60;;;;;;;15.83;82.23;99916.36;1623060;87;21159;-67
2021/08/26 10:01:19;;;;;;;1.12;1.12;;;;;;;15.84;81.90;99914.80;1614140;87;21875;-67
2021/08/26 10:03:47;;;;;;;1.57;1.32;;;;;;;15.86;81.63;99913.19;1669728;85;21113;-66
2021/08/26 10:08:21;;;;;;;3.50;1.50;;;;;;;15.98;82.10;99907.30;1815253;77;22909;-67
2021/08/26 10:10:48;;;;;;;2.20;1.72;;;;;;;15.95;82.17;99903.22;1755161;81;21021;-67
2021/08/26 10:13:16;;;;;;;2.12;2.02;;;;;;;16.00;81.35;99905.73;1716267;81;21009;-67
2021/08/26 10:15:42;;;;;;;1.90;1.80;;;;;;;16.05;81.48;99898.59;1707242;82;21133;-67
2021/08/26 10:18:09;;;;;;;2.85;2.15;;;;;;;16.10;81.22;99895.19;1703435;82;21098;-67
2021/08/26 10:20:37;;;;;;;;;;;;;;;16.19;80.76;99884.37;1701038;82;21657;-69
2021/08/26 10:23:05;;;;;;;1.95;1.85;;;;;;;16.27;80.25;99893.94;1684865;83;20139;-66
2021/08/26 10:25:37;;;;;;;3.87;3.08;;;;;;;16.28;80.44;99902.31;1675333;83;21089;-65
2021/08/26 10:28:07;;;;;;;4.65;3.02;;;;;;;16.32;79.52;99902.93;1676430;83;21564;-69
2021/08/26 10:30:40;;;;;;;2.80;2.60;;;;;;;16.36;79.47;99899.24;1702608;83;21703;-70
2021/08/26 10:33:14;;;;;;;4.40;2.60;;;;;;;16.40;79.71;99893.67;1693439;83;21072;-67
2021/08/26 10:35:58;;;;;;;3.45;3.25;;;;;;;16.45;80.02;99892.98;1699450;83;21019;-67
2021/08/26 10:38:35;;;;;;;5.10;2.87;;;;;;;16.52;79.52;99896.36;1703399;83;21614;-66
2021/08/26 10:41:27;;;;;;;3.65;3.45;;;;;;;16.52;79.52;99896.36;1696897;83;21101;-67
2021/08/26 10:43:59;;;;;;;3.65;2.95;;;;;;;16.62;80.04;99905.16;1694142;83;21006;-68
2021/08/26 10:46:51;;;;;;;3.52;3.22;;;;;;;16.65;79.77;99907.35;1680243;84;21106;-67
2021/08/26 10:49:19;;;;;;;3.20;2.95;;;;;;;16.65;79.52;99906.00;1711342;83;21562;-67
2021/08/26 10:51:48;;;;;;;5.60;3.22;;;;;;;16.66;79.33;99905.77;1702655;83;21439;-67
2021/08/26 10:54:33;;;;;;;3.05;2.95;;;;;;;16.67;78.01;99892.62;1704951;83;21061;-68
2021/08/26 10:57:28;;;;;;;3.50;3.30;;;;;;;16.70;78.13;99882.70;1700665;83;21139;-68
2021/08/26 10:59:55;;;;;;;4.67;3.42;;;;;;;16.73;78.37;99881.42;1699278;83;21054;-66
2021/08/26 11:02:41;;;;;;;2.33;2.22;;;;;;;16.82;78.60;99880.49;1686895;83;20974;-67
2021/08/26 11:05:34;;;;;;;2.85;2.62;;;;;;;16.85;79.05;99880.86;1727703;81;21603;-67
2021/08/26 11:08:31;;;;;;;3.22;3.02;;;;;;;16.95;78.77;99886.16;1694557;83;21019;-67
2021/08/26 11:11:01;;;;;;;2.60;2.50;;;;;;;16.98;78.20;99881.64;1690683;83;21035;-66
2021/08/26 11:13:33;;;;;;;2.87;2.67;;;;;;;17.02;77.93;99884.94;1700076;83;21087;-67
2021/08/26 11:16:27;;;;;;;8.35;2.02;;;;;;;17.05;78.31;99897.13;1699369;83;21038;-68
2021/08/26 11:18:58;;;;;;;4.58;3.15;;;;;;;17.06;78.50;99896.05;1694161;84;21158;-66
2021/08/26 11:21:48;;;;;;;2.83;2.72;;;;;;;17.06;78.09;99895.51;1694845;84;20967;-66
2021/08/26 11:24:20;;;;;;;2.45;2.35;;;;;;;17.09;77.17;99889.66;1693616;82;21027;-67
2021/08/26 11:27:00;;;;;;;3.83;3.52;;;;;;;17.18;76.40;99887.39;1697506;82;21548;-68
2021/08/26 11:29:35;;;;;;;3.30;3.00;;;;;;;17.29;75.92;99874.89;1705207;82;21035;-68
2021/08/26 11:32:08;;;;;;;4.28;3.40;;;;;;;17.41;75.46;99863.52;1695357;82;20956;-67
2021/08/26 11:34:40;;;;;;;4.45;4.05;;;;;;;17.51;75.11;99860.17;1703028;82;21598;-67
2021/08/26 11:37:26;;;;;;;5.10;4.80;;;;;;;17.60;74.43;99855.20;1709648;82;20956;-67
2021/08/26 11:40:13;;;;;;;4.85;4.55;;;;;;;17.67;73.54;99862.05;1699445;82;20979;-67
2021/08/26 11:42:48;;;;;;;5.22;4.80;;;;;;;17.74;73.58;99868.59;1706934;82;21035;-69
2021/08/26 11:45:23;;;;;;;5.80;5.37;;;;;;;17.78;73.55;99860.83;1699663;82;20966;-66
2021/08/26 11:48:03;;;;;;;10.25;6.75;;;;;;;17.75;73.14;99859.46;1702469;82;21110;-65
2021/08/26 11:50:34;;;;;;;9.20;8.18;;;;;;;17.71;73.47;99857.78;1704052;82;21488;-66
2021/08/26 11:53:07;;;;;;;10.18;7.60;;;;;;;17.70;73.69;99858.03;1700436;82;21054;-66
2021/08/26 11:55:39;;;;;;;;;;;;;;;17.71;73.88;99859.67;1697185;82;21102;-68
2021/08/26 11:58:32;;;;;;;12.70;10.72;;;;;;;17.70;73.16;99860.72;1697395;82;20734;-65